Elk City Rgnl Business Information

FAA: ELK - ICAO: KELK

Elk City Rgnl Business (Airport) Location

State Oklahoma
County Beckham
City Elk City
Elk City Rgnl Business (Airport) is 1 mile northeast of Elk City, OK.
Latitude 35-25-50.8000N
Longitude 099-23-39.4000W
Elevation 2,012ft

Elk City Rgnl Business METARs

METAR KELK 261035Z AUTO 00000KT 10SM CLR 10/08 A2995 RMK AO2 T00980081
Altimeter 29.95"
Temperature 9.8°C (49.6°F)
Wind 0° at 0KT
Clouds Skies are clear.
Visibility 10.0mi
Time observed: 2022-05-26T10:35:00Z

Elk City Rgnl Business (Airport) Details

Status Operational
Activation November 1948
Ownership Public
Usage Public
Chart DALLAS-FT WORTH
ATC on-site No
Beacon schedule sunset-sunrise
Beacon color clear green

Elk City Rgnl Business (Airport) Contacts

Owner CITY OF ELK CITY
Owner address BOX 1100, ELK CITY, OK 73644
Owner phone 580-225-3230
Manager GENE PITTMAN
Manager address 227 E MAIN ST, DAVIS, OK 73030
Manager phone (580) 618-0303

Elk City Rgnl Business Radio Frequencies

Elk City Rgnl Business (Airport) Radio Frequencies

UNICOM 122.8
Common traffic advisory frequency (CTAF) 122.8